Time;durP1;ratioP1;P1;durP2;ratioP2;P2;SDS_P1;SDS_P2;PMS_P1;PMS_P2;Temp;Humidity;BMP_temperature;BMP_pressure;BME280_temperature;BME280_humidity;BME280_pressure;Samples;Min_cycle;Max_cycle;Signal;HPM_P1;HPM_P2
2023/04/23 00:01:13;;;;;;;51.22;39.00;;;;;;;8.04;100.00;100693.25;5019552;28;20094;-65
2023/04/23 00:03:41;;;;;;;44.55;37.00;;;;;;;8.04;100.00;100690.59;5031601;28;20033;-65
2023/04/23 00:06:10;;;;;;;48.83;36.83;;;;;;;8.03;100.00;100690.72;5031274;28;20025;-65
2023/04/23 00:08:39;;;;;;;;;;;;;;;8.09;100.00;100683.22;5049199;28;20543;-65
2023/04/23 00:11:05;;;;;;;48.40;36.45;;;;;;;8.02;100.00;100683.72;5041005;28;19913;-65
2023/04/23 00:13:31;;;;;;;44.83;37.35;;;;;;;8.01;100.00;100685.53;5038883;28;20083;-65
2023/04/23 00:15:56;;;;;;;46.25;36.42;;;;;;;8.00;100.00;100678.53;5032927;28;20037;-65
2023/04/23 00:18:22;;;;;;;44.67;35.92;;;;;;;7.98;100.00;100675.16;5047846;28;20399;-65
2023/04/23 00:20:47;;;;;;;44.92;35.42;;;;;;;7.97;100.00;100670.81;5042214;28;20033;-65
2023/04/23 00:23:12;;;;;;;43.47;35.63;;;;;;;7.96;100.00;100675.25;5025523;28;20057;-65
2023/04/23 00:25:37;;;;;;;41.92;34.05;;;;;;;7.96;100.00;100679.72;5033125;28;20031;-65
2023/04/23 00:28:03;;;;;;;46.15;35.17;;;;;;;7.94;100.00;100681.59;5034085;28;20022;-65
2023/04/23 00:30:28;;;;;;;43.42;34.70;;;;;;;7.92;100.00;100679.06;5035300;28;20096;-65
2023/04/23 00:32:54;;;;;;;43.60;34.92;;;;;;;7.91;100.00;100676.50;5037271;28;20033;-65
2023/04/23 00:35:19;;;;;;;40.50;32.55;;;;;;;7.90;100.00;100672.19;5019722;28;20033;-65
2023/04/23 00:37:45;;;;;;;36.72;32.00;;;;;;;7.87;100.00;100673.25;5037279;28;20022;-65
2023/04/23 00:40:10;;;;;;;37.05;32.20;;;;;;;7.88;100.00;100668.81;5033637;28;20034;-65
2023/04/23 00:42:37;;;;;;;38.72;32.15;;;;;;;7.87;100.00;100670.59;5035966;28;20048;-65
2023/04/23 00:45:03;;;;;;;38.08;29.80;;;;;;;7.84;100.00;100665.50;5032726;28;20031;-65
2023/04/23 00:47:29;;;;;;;39.03;31.70;;;;;;;7.82;100.00;100659.47;5023140;28;20059;-65
2023/04/23 00:49:55;;;;;;;37.53;31.15;;;;;;;7.82;100.00;100654.19;5032147;28;20513;-65
2023/04/23 00:52:20;;;;;;;35.42;30.15;;;;;;;7.81;100.00;100649.88;5048598;28;20108;-65
2023/04/23 00:54:46;;;;;;;36.75;30.27;;;;;;;7.83;100.00;100653.25;5045593;28;20108;-65
2023/04/23 00:57:11;;;;;;;34.65;30.00;;;;;;;7.84;100.00;100648.81;5042152;28;20103;-65
2023/04/23 00:59:37;;;;;;;37.72;29.90;;;;;;;7.86;100.00;100646.91;5037685;28;20385;-65
2023/04/23 01:02:02;;;;;;;38.13;31.33;;;;;;;7.87;100.00;100643.31;5044694;28;20041;-65
2023/04/23 01:04:29;;;;;;;37.13;30.98;;;;;;;7.88;100.00;100639.72;5040275;28;20080;-65
2023/04/23 01:06:55;;;;;;;36.67;30.77;;;;;;;7.89;100.00;100636.97;5041328;28;20024;-65
2023/04/23 01:09:21;;;;;;;37.25;30.05;;;;;;;7.90;100.00;100636.00;5040928;28;20108;-65
2023/04/23 01:11:49;;;;;;;35.25;31.27;;;;;;;7.92;100.00;100634.09;5046790;28;20049;-65
2023/04/23 01:14:16;;;;;;;36.75;30.15;;;;;;;7.94;100.00;100631.34;5041216;28;20052;-65
2023/04/23 01:16:41;;;;;;;37.10;31.23;;;;;;;7.95;100.00;100633.06;5049475;28;20115;-65
2023/04/23 01:19:08;;;;;;;37.28;31.10;;;;;;;7.94;100.00;100634.88;5034858;28;20033;-65
2023/04/23 01:21:35;;;;;;;39.80;31.33;;;;;;;7.94;100.00;100629.56;5042525;28;20063;-65
2023/04/23 01:24:03;;;;;;;37.13;30.70;;;;;;;7.94;100.00;100629.56;5038947;28;20097;-65
2023/04/23 01:26:28;;;;;;;35.03;30.33;;;;;;;7.94;100.00;100631.34;5040105;28;20176;-65
2023/04/23 01:28:54;;;;;;;38.13;31.05;;;;;;;7.93;100.00;100627.03;5041433;28;20025;-65
2023/04/23 01:31:19;;;;;;;35.97;30.13;;;;;;;7.93;100.00;100621.75;5048729;28;20094;-65
2023/04/23 01:33:45;;;;;;;35.13;30.33;;;;;;;7.94;100.00;100618.13;5037410;28;20463;-65
2023/04/23 01:36:11;;;;;;;37.00;30.65;;;;;;;7.95;100.00;100622.47;5023962;28;20034;-65
2023/04/23 01:38:38;;;;;;;34.20;28.38;;;;;;;7.95;100.00;100625.97;5045790;28;20034;-65
2023/04/23 01:41:04;;;;;;;35.20;29.40;;;;;;;7.97;100.00;100621.41;5023188;28;20018;-65
2023/04/23 01:43:30;;;;;;;36.53;29.80;;;;;;;7.97;100.00;100625.84;5025809;28;20057;-65
2023/04/23 01:45:56;;;;;;;33.83;29.30;;;;;;;7.97;100.00;100624.03;5018787;28;20467;-65
2023/04/23 01:48:22;;;;;;;36.20;28.90;;;;;;;7.98;100.00;100622.28;5037300;28;20406;-65
2023/04/23 01:50:49;;;;;;;36.22;28.95;;;;;;;8.00;100.00;100624.81;5017868;28;20116;-65
2023/04/23 01:53:14;;;;;;;35.53;28.70;;;;;;;8.01;100.00;100626.47;5017903;28;20025;-65
2023/04/23 01:55:40;;;;;;;34.15;28.92;;;;;;;8.01;100.00;100623.84;5030939;28;20037;-65
2023/04/23 01:58:05;;;;;;;31.98;27.98;;;;;;;8.01;100.00;100621.19;5025948;28;20076;-65
2023/04/23 02:00:30;;;;;;;29.67;26.23;;;;;;;8.01;100.00;100627.34;5033650;28;20025;-65
2023/04/23 02:02:56;;;;;;;34.53;28.92;;;;;;;8.02;100.00;100622.91;5023997;28;20034;-65
2023/04/23 02:05:22;;;;;;;32.63;27.42;;;;;;;8.00;100.00;100625.66;5032972;28;20072;-65
2023/04/23 02:07:49;;;;;;;32.05;26.60;;;;;;;7.98;100.00;100627.56;5043261;28;20033;-65
2023/04/23 02:10:15;;;;;;;28.65;25.35;;;;;;;8.00;100.00;100622.16;5034287;28;20026;-65
2023/04/23 02:12:41;;;;;;;31.80;26.23;;;;;;;7.98;100.00;100622.28;5035500;28;20482;-65
2023/04/23 02:15:08;;;;;;;29.17;24.45;;;;;;;7.98;100.00;100619.63;5044055;28;20021;-65
2023/04/23 02:17:34;;;;;;;29.27;24.88;;;;;;;7.99;100.00;100609.88;5045316;28;20047;-65
2023/04/23 02:20:00;;;;;;;30.10;25.95;;;;;;;7.97;100.00;100610.81;5023843;28;20481;-65
2023/04/23 02:22:27;;;;;;;27.48;24.48;;;;;;;8.01;100.00;100610.63;5030690;28;20036;-65
2023/04/23 02:24:53;;;;;;;28.17;25.08;;;;;;;8.02;100.00;100607.88;5017613;28;20037;-65
2023/04/23 02:27:18;;;;;;;27.45;24.08;;;;;;;8.02;100.00;100607.88;5029539;28;20110;-65
2023/04/23 02:29:45;;;;;;;28.90;25.38;;;;;;;8.03;100.00;100611.38;5032993;28;20104;-65
2023/04/23 02:32:10;;;;;;;30.75;25.83;;;;;;;8.04;100.00;100607.75;5032774;28;20030;-65
2023/04/23 02:34:36;;;;;;;29.45;23.65;;;;;;;8.05;100.00;100610.31;5026758;28;20040;-65
2023/04/23 02:37:03;;;;;;;29.30;25.42;;;;;;;8.02;100.00;100607.88;5032598;28;20097;-65
2023/04/23 02:39:29;;;;;;;27.88;24.85;;;;;;;8.02;100.00;100607.88;5031599;28;20471;-65
2023/04/23 02:41:55;;;;;;;27.23;24.33;;;;;;;8.02;100.00;100604.38;5029573;28;20033;-65
2023/04/23 02:44:21;;;;;;;28.02;25.02;;;;;;;8.01;100.00;100605.31;5032811;28;20021;-65
2023/04/23 02:46:46;;;;;;;29.25;25.25;;;;;;;7.99;100.00;100605.44;5025199;28;20037;-65
2023/04/23 02:49:11;;;;;;;29.10;25.00;;;;;;;7.98;100.00;100598.47;5032702;28;20036;-65
2023/04/23 02:51:36;;;;;;;27.77;24.27;;;;;;;7.97;100.00;100597.59;5033308;28;20021;-65
2023/04/23 02:54:02;;;;;;;28.75;24.45;;;;;;;7.96;100.00;100595.09;5031502;28;20029;-65
2023/04/23 02:56:28;;;;;;;26.70;23.75;;;;;;;7.97;100.00;100602.88;5030331;28;20053;-65
2023/04/23 02:58:53;;;;;;;28.02;25.02;;;;;;;7.98;100.00;100606.41;5030945;28;20048;-65
2023/04/23 03:01:19;;;;;;;29.20;23.70;;;;;;;8.00;100.00;100601.00;5032943;28;20040;-64
2023/04/23 03:03:44;;;;;;;27.35;24.10;;;;;;;8.01;100.00;100597.38;5032361;28;20025;-64
2023/04/23 03:06:09;;;;;;;28.70;25.08;;;;;;;8.03;100.00;100590.22;5044862;28;20119;-65
2023/04/23 03:08:35;;;;;;;28.30;24.83;;;;;;;8.03;100.00;100591.06;5047663;28;20025;-65
2023/04/23 03:11:00;;;;;;;28.75;24.88;;;;;;;8.05;100.00;100589.13;5038326;28;20032;-65
2023/04/23 03:13:26;;;;;;;28.70;23.35;;;;;;;8.04;100.00;100582.16;5047526;28;20409;-65
2023/04/23 03:15:53;;;;;;;25.48;22.77;;;;;;;8.06;100.00;100590.84;5030613;28;20033;-64
2023/04/23 03:18:18;;;;;;;26.80;23.60;;;;;;;8.06;100.00;100584.69;5041147;28;20078;-64
2023/04/23 03:20:43;;;;;;;27.75;23.65;;;;;;;8.05;100.00;100583.84;5038737;28;20029;-65
2023/04/23 03:23:09;;;;;;;28.27;22.63;;;;;;;8.06;100.00;100579.41;5020741;28;20056;-65
2023/04/23 03:25:34;;;;;;;25.60;22.90;;;;;;;8.05;100.00;100575.91;5032240;28;20087;-65
2023/04/23 03:28:00;;;;;;;24.90;22.23;;;;;;;8.04;100.00;100579.50;5031620;28;20036;-65
2023/04/23 03:30:26;;;;;;;27.02;23.52;;;;;;;8.04;100.00;100582.16;5039159;28;20174;-65
2023/04/23 03:32:55;;;;;;;26.08;23.00;;;;;;;8.05;100.00;100578.56;5042858;28;20033;-65
2023/04/23 03:35:21;;;;;;;29.48;23.40;;;;;;;8.07;100.00;100570.53;5040608;28;20380;-65
2023/04/23 03:37:46;;;;;;;27.30;23.02;;;;;;;8.07;100.00;100583.75;5039293;28;20029;-65
2023/04/23 03:40:11;;;;;;;28.80;23.67;;;;;;;8.07;100.00;100578.47;5047356;28;20021;-65
2023/04/23 03:42:37;;;;;;;26.40;23.13;;;;;;;8.08;100.00;100580.16;5035219;28;20028;-65
2023/04/23 03:45:03;;;;;;;27.30;23.38;;;;;;;8.09;100.00;100573.91;5037473;28;20151;-65
2023/04/23 03:47:28;;;;;;;27.02;23.55;;;;;;;8.09;100.00;100582.69;5042297;28;20378;-65
2023/04/23 03:49:53;;;;;;;26.70;23.73;;;;;;;8.10;100.00;100573.78;5034351;28;20029;-65
2023/04/23 03:52:19;;;;;;;26.48;23.67;;;;;;;8.13;100.00;100580.69;5048611;28;20017;-65
2023/04/23 03:54:44;;;;;;;29.30;24.38;;;;;;;8.14;100.00;100575.28;5041298;28;20534;-65
2023/04/23 03:57:12;;;;;;;27.35;23.60;;;;;;;8.15;100.00;100578.75;5021205;28;20616;-65
2023/04/23 03:59:38;;;;;;;27.30;23.95;;;;;;;8.18;100.00;100583.84;5042526;28;20057;-65
2023/04/23 04:02:04;;;;;;;26.52;23.23;;;;;;;8.19;100.00;100579.38;5041966;28;20640;-65
2023/04/23 04:04:30;;;;;;;28.98;23.38;;;;;;;8.17;100.00;100582.13;5044059;28;20112;-65
2023/04/23 04:06:56;;;;;;;26.52;23.17;;;;;;;8.20;100.00;100581.94;5050096;28;20100;-65
2023/04/23 04:09:22;;;;;;;25.90;22.70;;;;;;;8.19;100.00;100585.50;5042802;28;20419;-65
2023/04/23 04:11:47;;;;;;;27.15;22.90;;;;;;;8.18;100.00;100583.84;5047962;28;20045;-65
2023/04/23 04:14:13;;;;;;;25.40;22.73;;;;;;;8.18;100.00;100586.50;5034372;28;20025;-65
2023/04/23 04:16:38;;;;;;;26.55;23.70;;;;;;;8.15;100.00;100582.25;5025699;28;20107;-65
2023/04/23 04:19:03;;;;;;;27.92;23.05;;;;;;;8.14;100.00;100591.16;5035858;28;20048;-65
2023/04/23 04:21:29;;;;;;;25.30;22.50;;;;;;;8.14;100.00;100596.44;5030835;28;20117;-65
2023/04/23 04:23:55;;;;;;;27.63;21.88;;;;;;;8.13;100.00;100588.63;5037343;28;20092;-65
2023/04/23 04:26:20;;;;;;;28.65;22.67;;;;;;;8.13;100.00;100585.97;5039307;28;20378;-65
2023/04/23 04:28:45;;;;;;;25.40;22.63;;;;;;;8.11;100.00;100588.72;5034545;28;20049;-65
2023/04/23 04:31:13;;;;;;;24.90;22.20;;;;;;;8.11;100.00;100588.72;5038213;28;20024;-65
2023/04/23 04:33:38;;;;;;;24.63;22.02;;;;;;;8.13;100.00;100591.25;5049115;28;20074;-65
2023/04/23 04:36:04;;;;;;;27.88;22.98;;;;;;;8.12;100.00;100584.25;5024206;28;20025;-65
2023/04/23 04:38:29;;;;;;;25.92;22.58;;;;;;;8.13;100.00;100581.50;5036557;28;20041;-65
2023/04/23 04:40:58;;;;;;;27.38;22.27;;;;;;;8.11;100.00;100580.78;5042194;28;20025;-65
2023/04/23 04:43:24;;;;;;;25.85;21.77;;;;;;;8.12;100.00;100592.19;5051830;28;20466;-65
2023/04/23 04:45:50;;;;;;;25.13;21.40;;;;;;;8.12;100.00;100582.47;5046228;28;20025;-65
2023/04/23 04:48:15;;;;;;;24.73;21.83;;;;;;;8.13;100.00;100591.25;5033735;28;20529;-65
2023/04/23 04:50:40;;;;;;;24.85;21.52;;;;;;;8.12;100.00;100586.91;5052710;28;20179;-65
2023/04/23 04:53:06;;;;;;;27.80;22.42;;;;;;;8.09;100.00;100590.63;5049959;28;20158;-65
2023/04/23 04:55:31;;;;;;;25.50;21.90;;;;;;;8.09;100.00;100585.34;5052694;28;20371;-65
2023/04/23 04:57:56;;;;;;;25.08;21.42;;;;;;;8.08;100.00;100585.44;5024472;28;20021;-65
2023/04/23 05:00:26;;;;;;;24.40;21.15;;;;;;;8.06;100.00;100593.50;5039872;28;20397;-65
2023/04/23 05:02:52;;;;;;;26.40;22.42;;;;;;;8.05;100.00;100596.25;5038580;28;20033;-65
2023/04/23 05:05:19;;;;;;;24.98;22.25;;;;;;;8.05;100.00;100596.25;5040289;28;20032;-65
2023/04/23 05:07:44;;;;;;;24.98;21.88;;;;;;;8.05;100.00;100593.59;5046979;28;20021;-65
2023/04/23 05:10:10;;;;;;;25.60;22.20;;;;;;;8.06;100.00;100595.28;5035183;28;20378;-65
2023/04/23 05:12:36;;;;;;;25.52;21.83;;;;;;;8.08;100.00;100588.94;5041789;28;20041;-65
2023/04/23 05:15:03;;;;;;;28.48;22.25;;;;;;;8.10;100.00;100596.75;5048168;28;20035;-65
2023/04/23 05:17:28;;;;;;;25.52;22.75;;;;;;;8.11;100.00;100591.38;5043570;28;20033;-66
2023/04/23 05:19:53;;;;;;;27.00;22.33;;;;;;;8.14;100.00;100593.81;5042863;28;20035;-65
2023/04/23 05:22:19;;;;;;;24.95;22.23;;;;;;;8.19;100.00;100589.97;5039673;28;20022;-65
2023/04/23 05:24:45;;;;;;;25.70;22.83;;;;;;;8.21;100.00;100593.34;5047723;28;20035;-66
2023/04/23 05:27:10;;;;;;;27.30;22.98;;;;;;;8.25;100.00;100593.03;5042847;28;20471;-65
2023/04/23 05:29:35;;;;;;;26.60;23.20;;;;;;;8.28;100.00;100594.63;5037307;28;20033;-65
2023/04/23 05:32:01;;;;;;;28.20;21.85;;;;;;;8.32;100.00;100598.72;5038757;28;20051;-65
2023/04/23 05:34:26;;;;;;;28.50;22.95;;;;;;;8.35;100.00;100595.88;5036172;28;20491;-65
2023/04/23 05:36:51;;;;;;;27.88;22.15;;;;;;;8.37;100.00;100601.88;5039488;28;20033;-65
2023/04/23 05:39:16;;;;;;;28.67;23.65;;;;;;;8.41;100.00;100594.56;5042463;28;20028;-65
2023/04/23 05:41:42;;;;;;;27.60;23.38;;;;;;;8.45;100.00;100596.09;5039004;28;20112;-65
2023/04/23 05:44:07;;;;;;;26.35;22.73;;;;;;;8.48;100.00;100588.78;5047724;28;20017;-65
2023/04/23 05:46:32;;;;;;;26.77;22.95;;;;;;;8.53;100.00;100596.38;5033631;28;20056;-65
2023/04/23 05:48:58;;;;;;;25.17;22.42;;;;;;;8.58;100.00;100590.78;5043096;28;20025;-65
2023/04/23 05:51:23;;;;;;;27.00;22.50;;;;;;;8.61;100.00;100587.88;5038606;28;20033;-65
2023/04/23 05:53:48;;;;;;;24.90;22.20;;;;;;;8.65;100.00;100594.66;5038033;28;20037;-65
2023/04/23 05:56:14;;;;;;;24.42;21.52;;;;;;;8.67;100.00;100590.91;5029580;28;20115;-59
2023/04/23 05:58:39;;;;;;;26.08;21.95;;;;;;;8.69;100.00;100589.03;5031853;28;20441;-59
2023/04/23 06:01:04;;;;;;;23.40;20.90;;;;;;;8.71;100.00;100583.63;5033676;28;20448;-61
2023/04/23 06:03:30;;;;;;;24.13;20.30;;;;;;;8.76;100.00;100589.44;5035099;28;20037;-61
2023/04/23 06:05:55;;;;;;;22.95;20.42;;;;;;;8.81;100.00;100591.72;5033940;28;20148;-61
2023/04/23 06:08:20;;;;;;;23.48;20.90;;;;;;;8.85;100.00;100579.97;5030721;28;20061;-62
2023/04/23 06:10:46;;;;;;;22.80;19.27;;;;;;;8.88;100.00;100585.88;5029308;28;20100;-62
2023/04/23 06:13:11;;;;;;;26.20;19.70;;;;;;;8.93;100.00;100580.25;5022657;28;20041;-61
2023/04/23 06:15:37;;;;;;;24.80;19.38;;;;;;;9.00;100.00;100585.94;5024959;28;20080;-61
2023/04/23 06:18:02;;;;;;;22.20;18.65;;;;;;;9.04;100.00;100582.94;5032798;28;20478;-62
2023/04/23 06:20:28;;;;;;;22.05;19.17;;;;;;;9.10;100.00;100568.38;5029062;28;20483;-61
2023/04/23 06:22:53;;;;;;;22.58;19.52;;;;;;;9.17;100.00;100568.75;5031258;28;20037;-62
2023/04/23 06:25:19;;;;;;;21.20;18.75;;;;;;;9.23;100.00;100563.00;5029116;28;20034;-63
2023/04/23 06:27:44;;;;;;;22.30;19.15;;;;;;;9.29;100.00;100557.22;5023048;28;20052;-62
2023/04/23 06:30:10;;;;;;;23.10;18.98;;;;;;;9.37;100.00;100549.53;5033262;28;20068;-62
2023/04/23 06:32:35;;;;;;;23.15;19.38;;;;;;;9.44;100.00;100557.88;5027425;28;20406;-62
2023/04/23 06:35:00;;;;;;;21.42;18.30;;;;;;;9.50;100.00;100552.09;5026589;28;20042;-62
2023/04/23 06:37:27;;;;;;;22.58;19.08;;;;;;;9.58;100.00;100562.97;5031237;28;20079;-62
2023/04/23 06:39:52;;;;;;;22.50;18.77;;;;;;;9.65;100.00;100554.53;5027281;28;20037;-62
2023/04/23 06:42:17;;;;;;;21.95;17.38;;;;;;;9.72;100.00;100550.44;5031734;28;20039;-62
2023/04/23 06:44:43;;;;;;;22.35;17.83;;;;;;;9.81;100.00;100552.41;5039049;28;20057;-62
2023/04/23 06:47:08;;;;;;;23.63;18.15;;;;;;;9.90;100.00;100564.91;5024304;28;20033;-61
2023/04/23 06:49:33;;;;;;;22.67;17.10;;;;;;;10.00;100.00;100551.78;5045463;28;20080;-62
2023/04/23 06:51:59;;;;;;;20.27;16.08;;;;;;;10.10;100.00;100550.09;5031114;28;20037;-63
2023/04/23 06:54:24;;;;;;;18.42;15.52;;;;;;;10.24;100.00;100545.47;5037330;28;20036;-63
2023/04/23 06:56:49;;;;;;;19.00;15.45;;;;;;;10.36;100.00;100542.72;5029963;28;20586;-63
2023/04/23 06:59:15;;;;;;;19.83;14.57;;;;;;;10.50;100.00;100546.09;5035818;28;20052;-63
2023/04/23 07:01:41;;;;;;;17.42;14.35;;;;;;;10.68;100.00;100543.75;5042921;28;20037;-63
2023/04/23 07:04:07;;;;;;;15.27;12.30;;;;;;;10.83;100.00;100547.78;5033067;28;20042;-63
2023/04/23 07:06:33;;;;;;;19.52;12.23;;;;;;;11.05;100.00;100546.00;5039394;28;20041;-63
2023/04/23 07:08:58;;;;;;;17.52;11.70;;;;;;;11.23;100.00;100544.47;5029872;28;20442;-63
2023/04/23 07:11:24;;;;;;;15.23;10.82;;;;;;;11.45;100.00;100538.16;5030649;28;20037;-62
2023/04/23 07:13:50;;;;;;;16.40;10.40;;;;;;;11.62;100.00;100542.06;5031735;28;20037;-64
2023/04/23 07:16:15;;;;;;;13.68;9.75;;;;;;;11.79;100.00;100540.59;5029383;28;20044;-63
2023/04/23 07:18:40;;;;;;;16.92;9.15;;;;;;;12.00;100.00;100542.38;5021823;28;20546;-62
2023/04/23 07:21:06;;;;;;;11.50;8.57;;;;;;;12.18;100.00;100542.59;5041153;28;20037;-62
2023/04/23 07:23:31;;;;;;;13.35;8.35;;;;;;;12.34;100.00;100539.41;5045635;28;20048;-60
2023/04/23 07:25:56;;;;;;;13.55;8.27;;;;;;;12.51;100.00;100535.25;5040590;28;20390;-61
2023/04/23 07:28:22;;;;;;;12.45;7.78;;;;;;;12.72;100.00;100540.44;5040563;28;20033;-61
2023/04/23 07:30:47;;;;;;;12.75;7.63;;;;;;;12.91;99.46;100535.13;5038521;28;20124;-60
2023/04/23 07:33:13;;;;;;;13.80;7.35;;;;;;;13.08;97.72;100528.25;5027981;28;20470;-59
2023/04/23 07:35:38;;;;;;;12.43;7.25;;;;;;;13.27;97.67;100537.19;5029449;28;20065;-61
2023/04/23 07:38:03;;;;;;;12.45;7.20;;;;;;;13.47;95.56;100525.56;5030277;28;20032;-61
2023/04/23 07:40:29;;;;;;;9.10;5.95;;;;;;;13.65;93.85;100530.97;5022325;28;20042;-62
2023/04/23 07:42:55;;;;;;;11.52;6.70;;;;;;;13.80;90.61;100526.00;5034822;28;20032;-62
2023/04/23 07:45:20;;;;;;;12.52;5.90;;;;;;;13.94;90.21;100524.69;5029827;28;20041;-62
2023/04/23 07:47:46;;;;;;;10.50;5.70;;;;;;;14.12;91.72;100522.09;5036124;28;20119;-62
2023/04/23 07:50:12;;;;;;;13.63;5.57;;;;;;;14.33;90.83;100531.66;5030133;28;20389;-62
2023/04/23 07:52:37;;;;;;;9.38;5.18;;;;;;;14.47;87.04;100524.97;5023301;28;20207;-62
2023/04/23 07:55:04;;;;;;;10.85;4.70;;;;;;;14.61;87.64;100525.31;5023047;28;20114;-62
2023/04/23 07:57:29;;;;;;;12.30;5.13;;;;;;;14.85;87.14;100523.88;5026827;28;20037;-61
2023/04/23 07:59:55;;;;;;;11.50;5.25;;;;;;;15.01;85.94;100519.66;5031480;28;20029;-62
2023/04/23 08:02:24;;;;;;;10.63;5.57;;;;;;;15.12;83.30;100520.25;5021160;28;20091;-62
2023/04/23 08:04:50;;;;;;;7.70;4.80;;;;;;;15.28;81.26;100516.84;5017705;28;20501;-62
2023/04/23 08:07:15;;;;;;;9.52;4.50;;;;;;;15.40;82.00;100511.25;5027694;28;20030;-62
2023/04/23 08:09:41;;;;;;;9.27;4.90;;;;;;;15.53;81.27;100507.16;5030387;28;20041;-60
2023/04/23 08:12:06;;;;;;;8.88;4.43;;;;;;;15.69;80.42;100510.94;5021773;28;20777;-62
2023/04/23 08:14:32;;;;;;;11.55;4.95;;;;;;;15.86;80.49;100502.00;5025449;28;20066;-62
2023/04/23 08:16:57;;;;;;;11.35;4.22;;;;;;;16.04;78.87;100509.94;5041146;28;20436;-62
2023/04/23 08:19:22;;;;;;;11.40;4.10;;;;;;;16.15;77.14;100502.63;5032098;28;20037;-63
2023/04/23 08:21:48;;;;;;;10.82;3.72;;;;;;;16.40;77.65;100507.06;5019926;28;20860;-62
2023/04/23 08:24:13;;;;;;;7.40;3.63;;;;;;;16.64;76.56;100503.56;5025933;28;20041;-62
2023/04/23 08:26:38;;;;;;;10.90;3.97;;;;;;;16.94;76.44;100484.38;5028821;28;20486;-61
2023/04/23 08:29:04;;;;;;;11.23;4.38;;;;;;;17.05;74.06;100485.84;5022576;28;20505;-61
2023/04/23 08:31:30;;;;;;;8.20;3.58;;;;;;;17.17;73.84;100485.34;5031958;28;20514;-61
2023/04/23 08:33:55;;;;;;;9.00;3.35;;;;;;;17.34;71.39;100493.38;5031651;28;20037;-61
2023/04/23 08:36:21;;;;;;;7.18;3.22;;;;;;;17.61;71.44;100489.44;5031573;28;20081;-62
2023/04/23 08:38:46;;;;;;;9.32;2.92;;;;;;;17.84;71.23;100489.53;5004395;28;20024;-61
2023/04/23 08:41:13;;;;;;;9.45;3.60;;;;;;;17.94;67.43;100497.44;5048039;28;20524;-61
2023/04/23 08:44:04;;;;;;;9.88;3.03;;;;;;;18.03;70.55;100485.63;5040893;28;20390;-61
2023/04/23 08:46:31;;;;;;;10.70;3.05;;;;;;;18.08;65.33;100488.59;5020287;28;20478;-61
2023/04/23 08:48:59;;;;;;;8.07;3.03;;;;;;;18.24;65.14;100487.69;5039230;28;20049;-62
2023/04/23 08:51:27;;;;;;;13.02;3.25;;;;;;;18.36;63.33;100490.00;5027525;28;20476;-61
2023/04/23 08:53:56;;;;;;;10.77;3.20;;;;;;;18.47;64.50;100482.34;5032371;28;20037;-62
2023/04/23 08:56:23;;;;;;;10.02;2.78;;;;;;;18.63;65.02;100480.56;5028598;28;20092;-61
2023/04/23 08:58:49;;;;;;;14.38;2.85;;;;;;;18.70;62.31;100491.44;5027091;28;20030;-61
2023/04/23 09:01:16;;;;;;;10.15;2.83;;;;;;;18.60;60.24;100489.84;5032787;28;20120;-61
2023/04/23 09:03:41;;;;;;;7.68;2.80;;;;;;;18.67;61.41;100492.66;5033141;28;20064;-62
2023/04/23 09:06:07;;;;;;;9.93;2.90;;;;;;;18.56;61.63;100488.50;5031699;28;20498;-63
2023/04/23 09:08:32;;;;;;;12.30;2.85;;;;;;;18.42;61.06;100484.75;5025089;28;20033;-63
2023/04/23 09:11:00;;;;;;;8.27;2.40;;;;;;;18.49;61.30;100487.56;5040158;28;20034;-63
2023/04/23 09:13:25;;;;;;;9.00;2.60;;;;;;;18.45;60.32;100495.16;5032048;28;20065;-63
2023/04/23 09:15:51;;;;;;;8.73;2.70;;;;;;;18.58;62.23;100493.72;5036823;28;20299;-62
2023/04/23 09:18:19;;;;;;;8.40;2.20;;;;;;;18.76;60.16;100488.03;5030727;28;20056;-63
2023/04/23 09:20:44;;;;;;;7.18;2.65;;;;;;;18.67;58.60;100480.03;5034415;28;20103;-63
2023/04/23 09:23:13;;;;;;;8.43;2.42;;;;;;;18.66;58.10;100474.81;5037495;28;20022;-62
2023/04/23 09:25:39;;;;;;;10.15;2.40;;;;;;;18.72;60.39;100473.25;5037926;28;20028;-63
2023/04/23 09:28:07;;;;;;;6.28;2.08;;;;;;;18.92;60.48;100476.31;5034118;28;20071;-63
2023/04/23 09:30:44;;;;;;;7.30;2.55;;;;;;;19.00;57.27;100476.25;5036356;28;20025;-63
2023/04/23 09:33:11;;;;;;;5.20;1.88;;;;;;;19.06;55.71;100472.00;5025529;28;20029;-63
2023/04/23 09:35:37;;;;;;;10.10;2.60;;;;;;;19.03;54.92;100463.28;5032747;28;20025;-63
2023/04/23 09:38:06;;;;;;;8.38;2.15;;;;;;;19.18;55.43;100455.22;5025133;28;20112;-61
2023/04/23 09:40:31;;;;;;;;;;;;;;;19.51;62.17;100462.13;5025808;28;20033;-61
2023/04/23 09:42:57;;;;;;;8.37;2.37;;;;;;;19.73;54.11;100466.59;5036814;28;19995;-61
2023/04/23 09:45:25;;;;;;;10.57;2.60;;;;;;;19.90;53.53;100451.09;5031385;28;20025;-61
2023/04/23 09:47:52;;;;;;;5.55;1.88;;;;;;;19.85;51.58;100460.75;5031276;28;20306;-61
2023/04/23 09:50:38;;;;;;;6.25;1.85;;;;;;;19.82;54.51;100461.97;5034696;28;20498;-61
2023/04/23 09:53:06;;;;;;;6.18;1.75;;;;;;;19.56;51.63;100463.22;5040143;28;20025;-61
2023/04/23 09:55:37;;;;;;;6.90;1.67;;;;;;;19.40;52.31;100464.28;5027037;28;20139;-61
2023/04/23 09:58:04;;;;;;;4.90;1.60;;;;;;;19.04;51.94;100450.66;5024952;28;20025;-61
2023/04/23 10:00:35;;;;;;;4.25;1.88;;;;;;;18.94;54.26;100453.59;5042081;28;20508;-61
2023/04/23 10:03:00;;;;;;;8.63;2.00;;;;;;;18.87;52.49;100452.66;5024201;28;20083;-61
2023/04/23 10:05:26;;;;;;;8.27;1.92;;;;;;;18.78;52.72;100453.72;5034562;28;20045;-61
2023/04/23 10:07:52;;;;;;;6.50;2.10;;;;;;;18.66;53.52;100446.06;5031863;28;20469;-62
2023/04/23 10:10:18;;;;;;;6.70;2.13;;;;;;;18.66;54.72;100451.44;5037147;28;20719;-62
2023/04/23 10:12:45;;;;;;;6.22;2.58;;;;;;;18.64;54.13;100448.09;5031050;28;20120;-63
2023/04/23 10:15:11;;;;;;;4.80;1.98;;;;;;;18.47;54.59;100449.25;5041179;28;20068;-63
2023/04/23 10:17:37;;;;;;;4.97;2.47;;;;;;;18.41;56.33;100439.22;5038303;28;20041;-63
2023/04/23 10:20:05;;;;;;;6.03;1.85;;;;;;;18.55;55.60;100434.91;5029633;28;20038;-63
2023/04/23 10:22:32;;;;;;;8.38;2.47;;;;;;;18.56;55.11;100439.28;5024006;28;20494;-63
2023/04/23 10:25:01;;;;;;;9.57;2.72;;;;;;;18.67;54.22;100433.47;5030116;28;20033;-63
2023/04/23 10:27:27;;;;;;;;;;;;;;;18.93;59.24;100433.09;5031528;28;20553;-64
2023/04/23 10:29:53;;;;;;;7.03;2.30;;;;;;;18.85;55.23;100431.31;5035198;28;19917;-63
2023/04/23 10:32:19;;;;;;;9.38;1.95;;;;;;;18.75;54.26;100437.94;5022355;28;20088;-63
2023/04/23 10:34:45;;;;;;;6.53;2.03;;;;;;;18.66;54.69;100429.91;5031875;28;20395;-63
2023/04/23 10:37:12;;;;;;;6.40;2.00;;;;;;;18.59;54.88;100425.47;5024591;28;20103;-63
2023/04/23 10:39:37;;;;;;;6.63;2.10;;;;;;;18.43;55.11;100435.31;5029517;28;20033;-63
2023/04/23 10:42:04;;;;;;;7.00;2.70;;;;;;;18.29;55.54;100431.53;5046347;28;20102;-63
2023/04/23 10:44:37;;;;;;;5.40;2.13;;;;;;;18.31;57.96;100424.13;5022247;28;20045;-63
2023/04/23 10:47:03;;;;;;;9.75;3.60;;;;;;;18.33;57.03;100420.44;5020024;28;20057;-64
2023/04/23 10:49:33;;;;;;;5.95;2.20;;;;;;;18.34;57.41;100417.56;5009666;28;20041;-63
2023/04/23 10:52:02;;;;;;;4.68;2.03;;;;;;;18.33;56.05;100410.50;5027302;28;20029;-64
2023/04/23 10:54:30;;;;;;;7.75;2.40;;;;;;;18.27;55.39;100413.94;5021195;28;20034;-63
2023/04/23 10:57:04;;;;;;;8.65;3.97;;;;;;;18.23;56.68;100396.47;5027856;28;20029;-60
2023/04/23 10:59:31;;;;;;;5.20;1.75;;;;;;;18.31;57.39;100399.09;5023318;28;20029;-60
2023/04/23 11:01:58;;;;;;;7.13;1.90;;;;;;;18.35;55.92;100399.59;5018352;28;20056;-60
2023/04/23 11:04:28;;;;;;;7.30;2.35;;;;;;;18.28;56.21;100396.78;5027379;28;20539;-60
2023/04/23 11:07:12;;;;;;;5.65;1.95;;;;;;;18.23;58.32;100389.25;5025806;28;20063;-61
2023/04/23 11:09:47;;;;;;;5.95;1.88;;;;;;;18.19;57.31;100381.75;5023652;28;20033;-61